sensor_id;sensor_type;location;lat;lon;timestamp;temperature;humidity
13898;DHT22;7019;50.766;4.474;2022-10-31T00:00:33;11.90;99.90
13898;DHT22;7019;50.766;4.474;2022-10-31T00:03:00;11.80;99.90
13898;DHT22;7019;50.766;4.474;2022-10-31T00:05:27;11.80;99.90
13898;DHT22;7019;50.766;4.474;2022-10-31T00:07:54;11.80;99.90
13898;DHT22;7019;50.766;4.474;2022-10-31T00:10:21;11.80;99.90
13898;DHT22;7019;50.766;4.474;2022-10-31T00:12:49;11.80;99.90
13898;DHT22;7019;50.766;4.474;2022-10-31T00:15:18;11.70;99.90
13898;DHT22;7019;50.766;4.474;2022-10-31T00:17:45;11.70;99.90
13898;DHT22;7019;50.766;4.474;2022-10-31T00:20:12;11.70;99.90
13898;DHT22;7019;50.766;4.474;2022-10-31T00:22:39;11.70;99.90
13898;DHT22;7019;50.766;4.474;2022-10-31T00:25:06;11.60;99.90
13898;DHT22;7019;50.766;4.474;2022-10-31T00:27:33;11.60;99.90
13898;DHT22;7019;50.766;4.474;2022-10-31T00:30:02;11.60;99.90
13898;DHT22;7019;50.766;4.474;2022-10-31T00:32:29;11.50;99.90
13898;DHT22;7019;50.766;4.474;2022-10-31T00:34:56;11.50;99.90
13898;DHT22;7019;50.766;4.474;2022-10-31T00:37:23;11.40;99.90
13898;DHT22;7019;50.766;4.474;2022-10-31T00:39:50;11.40;99.90
13898;DHT22;7019;50.766;4.474;2022-10-31T00:42:17;11.30;99.90
13898;DHT22;7019;50.766;4.474;2022-10-31T00:44:44;11.30;99.90
13898;DHT22;7019;50.766;4.474;2022-10-31T00:47:13;11.30;99.90
13898;DHT22;7019;50.766;4.474;2022-10-31T00:49:40;11.30;99.90
13898;DHT22;7019;50.766;4.474;2022-10-31T00:52:07;11.30;99.90
13898;DHT22;7019;50.766;4.474;2022-10-31T00:54:34;11.20;99.90
13898;DHT22;7019;50.766;4.474;2022-10-31T00:57:01;11.20;99.90
13898;DHT22;7019;50.766;4.474;2022-10-31T00:59:28;11.20;99.90
13898;DHT22;7019;50.766;4.474;2022-10-31T01:01:55;11.20;99.90
13898;DHT22;7019;50.766;4.474;2022-10-31T01:04:23;11.10;99.90
13898;DHT22;7019;50.766;4.474;2022-10-31T01:06:51;11.10;99.90
13898;DHT22;7019;50.766;4.474;2022-10-31T01:09:18;11.10;99.90
13898;DHT22;7019;50.766;4.474;2022-10-31T01:11:45;11.10;99.90
13898;DHT22;7019;50.766;4.474;2022-10-31T01:14:12;11.00;99.90
13898;DHT22;7019;50.766;4.474;2022-10-31T01:16:39;11.00;99.90
13898;DHT22;7019;50.766;4.474;2022-10-31T01:19:06;11.00;99.90
13898;DHT22;7019;50.766;4.474;2022-10-31T01:21:35;11.00;99.90
13898;DHT22;7019;50.766;4.474;2022-10-31T01:24:02;11.00;99.90
13898;DHT22;7019;50.766;4.474;2022-10-31T01:26:30;11.00;99.90
13898;DHT22;7019;50.766;4.474;2022-10-31T01:28:59;10.90;99.90
13898;DHT22;7019;50.766;4.474;2022-10-31T01:31:28;10.90;99.90
13898;DHT22;7019;50.766;4.474;2022-10-31T01:33:56;10.90;99.90
13898;DHT22;7019;50.766;4.474;2022-10-31T01:36:26;10.80;99.90
13898;DHT22;7019;50.766;4.474;2022-10-31T01:38:57;10.80;99.90
13898;DHT22;7019;50.766;4.474;2022-10-31T01:41:27;10.80;99.90
13898;DHT22;7019;50.766;4.474;2022-10-31T01:43:56;10.70;99.90
13898;DHT22;7019;50.766;4.474;2022-10-31T01:46:27;10.80;99.90
13898;DHT22;7019;50.766;4.474;2022-10-31T01:48:57;10.70;99.90
13898;DHT22;7019;50.766;4.474;2022-10-31T01:51:28;10.70;99.90
13898;DHT22;7019;50.766;4.474;2022-10-31T01:53:59;10.70;99.90
13898;DHT22;7019;50.766;4.474;2022-10-31T01:56:28;10.70;99.90
13898;DHT22;7019;50.766;4.474;2022-10-31T01:58:56;10.60;99.90
13898;DHT22;7019;50.766;4.474;2022-10-31T02:01:25;10.60;99.90
13898;DHT22;7019;50.766;4.474;2022-10-31T02:03:55;10.50;99.90
13898;DHT22;7019;50.766;4.474;2022-10-31T02:06:29;10.40;99.90
13898;DHT22;7019;50.766;4.474;2022-10-31T02:09:00;10.40;99.90
13898;DHT22;7019;50.766;4.474;2022-10-31T02:11:28;10.40;99.90
13898;DHT22;7019;50.766;4.474;2022-10-31T02:13:56;10.30;99.90
13898;DHT22;7019;50.766;4.474;2022-10-31T02:16:24;10.30;99.90
13898;DHT22;7019;50.766;4.474;2022-10-31T02:18:52;10.30;99.90
13898;DHT22;7019;50.766;4.474;2022-10-31T02:21:23;10.30;99.90
13898;DHT22;7019;50.766;4.474;2022-10-31T02:24:16;10.30;99.90
13898;DHT22;7019;50.766;4.474;2022-10-31T02:27:02;10.30;99.90
13898;DHT22;7019;50.766;4.474;2022-10-31T02:30:09;10.20;99.90
13898;DHT22;7019;50.766;4.474;2022-10-31T02:33:00;10.20;99.90
13898;DHT22;7019;50.766;4.474;2022-10-31T02:35:50;10.20;99.90
13898;DHT22;7019;50.766;4.474;2022-10-31T02:38:27;10.10;99.90
13898;DHT22;7019;50.766;4.474;2022-10-31T02:41:01;10.10;99.90
13898;DHT22;7019;50.766;4.474;2022-10-31T02:43:36;10.10;99.90
13898;DHT22;7019;50.766;4.474;2022-10-31T02:46:11;10.20;99.90
13898;DHT22;7019;50.766;4.474;2022-10-31T02:48:44;10.20;99.90
13898;DHT22;7019;50.766;4.474;2022-10-31T02:51:12;10.20;99.90
13898;DHT22;7019;50.766;4.474;2022-10-31T02:53:40;10.10;99.90
13898;DHT22;7019;50.766;4.474;2022-10-31T02:56:11;10.10;99.90
13898;DHT22;7019;50.766;4.474;2022-10-31T02:58:41;10.10;99.90
13898;DHT22;7019;50.766;4.474;2022-10-31T03:01:31;10.10;99.90
13898;DHT22;7019;50.766;4.474;2022-10-31T03:04:16;10.10;99.90
13898;DHT22;7019;50.766;4.474;2022-10-31T03:06:48;10.10;99.90
13898;DHT22;7019;50.766;4.474;2022-10-31T03:09:22;10.10;99.90
13898;DHT22;7019;50.766;4.474;2022-10-31T03:11:57;10.00;99.90
13898;DHT22;7019;50.766;4.474;2022-10-31T03:14:33;10.00;99.90
13898;DHT22;7019;50.766;4.474;2022-10-31T03:17:05;10.00;99.90
13898;DHT22;7019;50.766;4.474;2022-10-31T03:19:39;10.00;99.90
13898;DHT22;7019;50.766;4.474;2022-10-31T03:22:12;9.90;99.90
13898;DHT22;7019;50.766;4.474;2022-10-31T03:24:43;9.90;99.90
13898;DHT22;7019;50.766;4.474;2022-10-31T03:27:14;9.80;99.90
13898;DHT22;7019;50.766;4.474;2022-10-31T03:29:44;9.70;99.90
13898;DHT22;7019;50.766;4.474;2022-10-31T03:32:15;9.80;99.90
13898;DHT22;7019;50.766;4.474;2022-10-31T03:34:45;9.80;99.90
13898;DHT22;7019;50.766;4.474;2022-10-31T03:37:16;9.80;99.90
13898;DHT22;7019;50.766;4.474;2022-10-31T03:39:46;9.80;99.90
13898;DHT22;7019;50.766;4.474;2022-10-31T03:42:16;9.80;99.90
13898;DHT22;7019;50.766;4.474;2022-10-31T03:44:48;9.80;99.90
13898;DHT22;7019;50.766;4.474;2022-10-31T03:47:18;9.90;99.90
13898;DHT22;7019;50.766;4.474;2022-10-31T03:49:46;9.80;99.90
13898;DHT22;7019;50.766;4.474;2022-10-31T03:52:19;9.90;99.90
13898;DHT22;7019;50.766;4.474;2022-10-31T03:54:54;9.90;99.90
13898;DHT22;7019;50.766;4.474;2022-10-31T03:57:27;9.90;99.90
13898;DHT22;7019;50.766;4.474;2022-10-31T03:59:59;9.90;99.90
13898;DHT22;7019;50.766;4.474;2022-10-31T04:02:30;9.90;99.90
13898;DHT22;7019;50.766;4.474;2022-10-31T04:05:00;9.90;99.90
13898;DHT22;7019;50.766;4.474;2022-10-31T04:07:31;9.90;99.90
13898;DHT22;7019;50.766;4.474;2022-10-31T04:10:04;9.90;99.90
13898;DHT22;7019;50.766;4.474;2022-10-31T04:12:32;9.80;99.90
13898;DHT22;7019;50.766;4.474;2022-10-31T04:15:01;9.70;99.90
13898;DHT22;7019;50.766;4.474;2022-10-31T04:17:32;9.70;99.90
13898;DHT22;7019;50.766;4.474;2022-10-31T04:20:03;9.70;99.90
13898;DHT22;7019;50.766;4.474;2022-10-31T04:22:30;9.80;99.90
13898;DHT22;7019;50.766;4.474;2022-10-31T04:24:57;9.80;99.90
13898;DHT22;7019;50.766;4.474;2022-10-31T04:27:24;9.80;99.90
13898;DHT22;7019;50.766;4.474;2022-10-31T04:29:51;9.80;99.90
13898;DHT22;7019;50.766;4.474;2022-10-31T04:32:18;9.90;99.90
13898;DHT22;7019;50.766;4.474;2022-10-31T04:34:45;9.90;99.90
13898;DHT22;7019;50.766;4.474;2022-10-31T04:37:13;10.00;99.90
13898;DHT22;7019;50.766;4.474;2022-10-31T04:39:40;10.00;99.90
13898;DHT22;7019;50.766;4.474;2022-10-31T04:42:07;10.10;99.90
13898;DHT22;7019;50.766;4.474;2022-10-31T04:44:34;10.10;99.90
13898;DHT22;7019;50.766;4.474;2022-10-31T04:47:01;10.10;99.90
13898;DHT22;7019;50.766;4.474;2022-10-31T04:49:28;10.10;99.90
13898;DHT22;7019;50.766;4.474;2022-10-31T04:51:55;10.10;99.90
13898;DHT22;7019;50.766;4.474;2022-10-31T04:54:24;10.10;99.90
13898;DHT22;7019;50.766;4.474;2022-10-31T04:56:51;10.10;99.90
13898;DHT22;7019;50.766;4.474;2022-10-31T04:59:18;10.10;99.90
13898;DHT22;7019;50.766;4.474;2022-10-31T05:01:45;10.10;99.90
13898;DHT22;7019;50.766;4.474;2022-10-31T05:04:12;9.90;99.90
13898;DHT22;7019;50.766;4.474;2022-10-31T05:06:39;9.70;99.90
13898;DHT22;7019;50.766;4.474;2022-10-31T05:09:06;9.60;99.90
13898;DHT22;7019;50.766;4.474;2022-10-31T05:11:34;9.50;99.90
13898;DHT22;7019;50.766;4.474;2022-10-31T05:14:02;9.50;99.90
13898;DHT22;7019;50.766;4.474;2022-10-31T05:16:29;9.60;99.90
13898;DHT22;7019;50.766;4.474;2022-10-31T05:18:56;9.70;99.90
13898;DHT22;7019;50.766;4.474;2022-10-31T05:21:23;9.70;99.90
13898;DHT22;7019;50.766;4.474;2022-10-31T05:23:50;9.60;99.90
13898;DHT22;7019;50.766;4.474;2022-10-31T05:26:17;9.60;99.90
13898;DHT22;7019;50.766;4.474;2022-10-31T05:28:46;9.70;99.90
13898;DHT22;7019;50.766;4.474;2022-10-31T05:31:13;9.80;99.90
13898;DHT22;7019;50.766;4.474;2022-10-31T05:33:40;9.80;99.90
13898;DHT22;7019;50.766;4.474;2022-10-31T05:36:07;9.80;99.90
13898;DHT22;7019;50.766;4.474;2022-10-31T05:38:34;9.90;99.90
13898;DHT22;7019;50.766;4.474;2022-10-31T05:41:01;9.90;99.90
13898;DHT22;7019;50.766;4.474;2022-10-31T05:43:29;9.80;99.90
13898;DHT22;7019;50.766;4.474;2022-10-31T05:45:57;9.70;99.90
13898;DHT22;7019;50.766;4.474;2022-10-31T05:48:24;9.60;99.90
13898;DHT22;7019;50.766;4.474;2022-10-31T05:50:51;9.60;99.90
13898;DHT22;7019;50.766;4.474;2022-10-31T05:53:18;9.60;99.90
13898;DHT22;7019;50.766;4.474;2022-10-31T05:55:46;9.70;99.90
13898;DHT22;7019;50.766;4.474;2022-10-31T05:58:13;9.80;99.90
13898;DHT22;7019;50.766;4.474;2022-10-31T06:00:40;9.90;99.90
13898;DHT22;7019;50.766;4.474;2022-10-31T06:03:09;9.90;99.90
13898;DHT22;7019;50.766;4.474;2022-10-31T06:05:37;9.90;99.90
13898;DHT22;7019;50.766;4.474;2022-10-31T06:08:04;9.90;99.90
13898;DHT22;7019;50.766;4.474;2022-10-31T06:10:31;10.00;99.90
13898;DHT22;7019;50.766;4.474;2022-10-31T06:12:58;10.00;99.90
13898;DHT22;7019;50.766;4.474;2022-10-31T06:15:25;10.10;99.90
13898;DHT22;7019;50.766;4.474;2022-10-31T06:18:03;10.10;99.90
13898;DHT22;7019;50.766;4.474;2022-10-31T06:20:32;10.10;99.90
13898;DHT22;7019;50.766;4.474;2022-10-31T06:23:00;10.00;99.90
13898;DHT22;7019;50.766;4.474;2022-10-31T06:25:27;9.90;99.90
13898;DHT22;7019;50.766;4.474;2022-10-31T06:27:54;9.90;99.90
13898;DHT22;7019;50.766;4.474;2022-10-31T06:30:21;9.90;99.90
13898;DHT22;7019;50.766;4.474;2022-10-31T06:32:48;9.90;99.90
13898;DHT22;7019;50.766;4.474;2022-10-31T06:35:16;10.00;99.90
13898;DHT22;7019;50.766;4.474;2022-10-31T06:37:50;10.10;99.90
13898;DHT22;7019;50.766;4.474;2022-10-31T06:40:17;10.10;99.90
13898;DHT22;7019;50.766;4.474;2022-10-31T06:42:45;10.20;99.90
13898;DHT22;7019;50.766;4.474;2022-10-31T06:45:12;10.20;99.90
13898;DHT22;7019;50.766;4.474;2022-10-31T06:47:39;10.20;99.90
13898;DHT22;7019;50.766;4.474;2022-10-31T06:50:06;10.20;99.90
13898;DHT22;7019;50.766;4.474;2022-10-31T06:52:34;10.10;99.90
13898;DHT22;7019;50.766;4.474;2022-10-31T06:55:02;10.10;99.90
13898;DHT22;7019;50.766;4.474;2022-10-31T06:57:29;10.00;99.90
13898;DHT22;7019;50.766;4.474;2022-10-31T06:59:56;10.00;99.90
13898;DHT22;7019;50.766;4.474;2022-10-31T07:02:23;9.90;99.90
13898;DHT22;7019;50.766;4.474;2022-10-31T07:04:50;10.00;99.90
13898;DHT22;7019;50.766;4.474;2022-10-31T07:07:17;10.10;99.90
13898;DHT22;7019;50.766;4.474;2022-10-31T07:09:46;10.10;99.90
13898;DHT22;7019;50.766;4.474;2022-10-31T07:12:15;10.20;99.90
13898;DHT22;7019;50.766;4.474;2022-10-31T07:14:42;10.30;99.90
13898;DHT22;7019;50.766;4.474;2022-10-31T07:17:10;10.30;99.90
13898;DHT22;7019;50.766;4.474;2022-10-31T07:19:37;10.30;99.90
13898;DHT22;7019;50.766;4.474;2022-10-31T07:22:04;10.30;99.90
13898;DHT22;7019;50.766;4.474;2022-10-31T07:24:31;10.30;99.90
13898;DHT22;7019;50.766;4.474;2022-10-31T07:26:58;10.40;99.90
13898;DHT22;7019;50.766;4.474;2022-10-31T07:29:27;10.50;99.90
13898;DHT22;7019;50.766;4.474;2022-10-31T07:31:54;10.60;99.90
13898;DHT22;7019;50.766;4.474;2022-10-31T07:34:21;10.60;99.90
13898;DHT22;7019;50.766;4.474;2022-10-31T07:36:50;10.70;99.90
13898;DHT22;7019;50.766;4.474;2022-10-31T07:39:17;10.80;99.90
13898;DHT22;7019;50.766;4.474;2022-10-31T07:41:44;10.90;99.90
13898;DHT22;7019;50.766;4.474;2022-10-31T07:44:11;10.90;99.90
13898;DHT22;7019;50.766;4.474;2022-10-31T07:46:40;10.90;99.90
13898;DHT22;7019;50.766;4.474;2022-10-31T07:49:19;11.00;99.90
13898;DHT22;7019;50.766;4.474;2022-10-31T07:51:46;10.90;99.90
13898;DHT22;7019;50.766;4.474;2022-10-31T07:54:13;11.10;99.90
13898;DHT22;7019;50.766;4.474;2022-10-31T07:59:16;11.10;99.90
13898;DHT22;7019;50.766;4.474;2022-10-31T08:01:44;11.20;99.90
13898;DHT22;7019;50.766;4.474;2022-10-31T08:04:12;11.30;99.90
13898;DHT22;7019;50.766;4.474;2022-10-31T08:06:39;11.40;99.90
13898;DHT22;7019;50.766;4.474;2022-10-31T08:09:06;11.40;99.90
13898;DHT22;7019;50.766;4.474;2022-10-31T08:11:34;11.50;99.90
13898;DHT22;7019;50.766;4.474;2022-10-31T08:14:02;11.60;99.90
13898;DHT22;7019;50.766;4.474;2022-10-31T08:16:29;11.60;99.90
13898;DHT22;7019;50.766;4.474;2022-10-31T08:18:57;11.70;99.90
13898;DHT22;7019;50.766;4.474;2022-10-31T08:21:24;11.70;99.90
13898;DHT22;7019;50.766;4.474;2022-10-31T08:23:52;11.80;99.90
13898;DHT22;7019;50.766;4.474;2022-10-31T08:26:19;11.90;99.90
13898;DHT22;7019;50.766;4.474;2022-10-31T08:28:46;11.90;99.90
13898;DHT22;7019;50.766;4.474;2022-10-31T08:31:15;12.00;99.90
13898;DHT22;7019;50.766;4.474;2022-10-31T08:33:42;12.10;99.90
13898;DHT22;7019;50.766;4.474;2022-10-31T08:36:11;12.10;99.90
13898;DHT22;7019;50.766;4.474;2022-10-31T08:38:38;12.10;99.90
13898;DHT22;7019;50.766;4.474;2022-10-31T08:41:05;12.20;99.90
13898;DHT22;7019;50.766;4.474;2022-10-31T08:43:32;12.20;99.90
13898;DHT22;7019;50.766;4.474;2022-10-31T08:45:59;12.20;99.90
13898;DHT22;7019;50.766;4.474;2022-10-31T08:48:27;12.30;99.90
13898;DHT22;7019;50.766;4.474;2022-10-31T08:50:56;12.30;99.90
13898;DHT22;7019;50.766;4.474;2022-10-31T08:53:26;12.30;99.90
13898;DHT22;7019;50.766;4.474;2022-10-31T08:55:55;12.30;99.90
13898;DHT22;7019;50.766;4.474;2022-10-31T08:58:23;12.30;99.90
13898;DHT22;7019;50.766;4.474;2022-10-31T09:00:53;12.30;99.90
13898;DHT22;7019;50.766;4.474;2022-10-31T09:03:23;12.40;99.90
13898;DHT22;7019;50.766;4.474;2022-10-31T09:05:53;12.40;99.90
13898;DHT22;7019;50.766;4.474;2022-10-31T09:08:21;12.50;99.90
13898;DHT22;7019;50.766;4.474;2022-10-31T09:10:49;12.60;99.90
13898;DHT22;7019;50.766;4.474;2022-10-31T09:13:17;12.60;99.90
13898;DHT22;7019;50.766;4.474;2022-10-31T09:15:46;12.60;99.90
13898;DHT22;7019;50.766;4.474;2022-10-31T09:18:16;12.70;99.90
13898;DHT22;7019;50.766;4.474;2022-10-31T09:20:44;12.70;99.90
13898;DHT22;7019;50.766;4.474;2022-10-31T09:23:13;12.80;99.90
13898;DHT22;7019;50.766;4.474;2022-10-31T09:25:41;12.80;99.90
13898;DHT22;7019;50.766;4.474;2022-10-31T09:28:12;12.90;99.90
13898;DHT22;7019;50.766;4.474;2022-10-31T09:30:40;12.90;99.90
13898;DHT22;7019;50.766;4.474;2022-10-31T09:33:09;13.00;99.90
13898;DHT22;7019;50.766;4.474;2022-10-31T09:35:37;13.00;99.90
13898;DHT22;7019;50.766;4.474;2022-10-31T09:38:05;13.10;99.90
13898;DHT22;7019;50.766;4.474;2022-10-31T09:40:35;13.10;99.90
13898;DHT22;7019;50.766;4.474;2022-10-31T09:43:12;13.20;99.90
13898;DHT22;7019;50.766;4.474;2022-10-31T09:45:47;13.20;99.90
13898;DHT22;7019;50.766;4.474;2022-10-31T09:48:41;13.30;99.90
13898;DHT22;7019;50.766;4.474;2022-10-31T09:51:12;13.40;99.90
13898;DHT22;7019;50.766;4.474;2022-10-31T09:53:46;13.50;99.90
13898;DHT22;7019;50.766;4.474;2022-10-31T09:56:16;13.60;99.90
13898;DHT22;7019;50.766;4.474;2022-10-31T09:58:48;13.80;99.90
13898;DHT22;7019;50.766;4.474;2022-10-31T10:01:44;13.80;99.90
13898;DHT22;7019;50.766;4.474;2022-10-31T10:04:26;13.90;99.90
13898;DHT22;7019;50.766;4.474;2022-10-31T10:06:55;14.00;99.90
13898;DHT22;7019;50.766;4.474;2022-10-31T10:09:27;14.00;99.90
13898;DHT22;7019;50.766;4.474;2022-10-31T10:12:05;14.10;99.90
13898;DHT22;7019;50.766;4.474;2022-10-31T10:14:47;14.20;99.90
13898;DHT22;7019;50.766;4.474;2022-10-31T10:17:24;14.30;99.90
13898;DHT22;7019;50.766;4.474;2022-10-31T10:20:05;14.50;99.90
13898;DHT22;7019;50.766;4.474;2022-10-31T10:22:40;14.60;99.90
13898;DHT22;7019;50.766;4.474;2022-10-31T10:25:15;14.70;99.90
13898;DHT22;7019;50.766;4.474;2022-10-31T10:27:55;14.80;99.90
13898;DHT22;7019;50.766;4.474;2022-10-31T10:30:30;14.80;99.90
13898;DHT22;7019;50.766;4.474;2022-10-31T10:33:04;14.80;99.90
13898;DHT22;7019;50.766;4.474;2022-10-31T10:35:33;14.80;99.90
13898;DHT22;7019;50.766;4.474;2022-10-31T10:38:08;14.70;99.90
13898;DHT22;7019;50.766;4.474;2022-10-31T10:40:37;14.80;99.90
13898;DHT22;7019;50.766;4.474;2022-10-31T10:43:20;14.90;99.90
13898;DHT22;7019;50.766;4.474;2022-10-31T10:46:13;15.10;99.90
13898;DHT22;7019;50.766;4.474;2022-10-31T10:49:10;15.10;99.90
13898;DHT22;7019;50.766;4.474;2022-10-31T10:51:43;15.30;99.90
13898;DHT22;7019;50.766;4.474;2022-10-31T10:57:32;15.30;99.90
13898;DHT22;7019;50.766;4.474;2022-10-31T11:00:21;15.40;99.90
13898;DHT22;7019;50.766;4.474;2022-10-31T11:06:29;15.40;99.90
13898;DHT22;7019;50.766;4.474;2022-10-31T11:11:33;15.50;99.90
13898;DHT22;7019;50.766;4.474;2022-10-31T11:19:17;15.70;99.90
13898;DHT22;7019;50.766;4.474;2022-10-31T11:21:46;15.80;99.90
13898;DHT22;7019;50.766;4.474;2022-10-31T11:24:17;16.00;99.90
13898;DHT22;7019;50.766;4.474;2022-10-31T11:26:48;16.20;99.90
13898;DHT22;7019;50.766;4.474;2022-10-31T11:29:19;16.30;99.90
13898;DHT22;7019;50.766;4.474;2022-10-31T11:31:49;16.50;99.90
13898;DHT22;7019;50.766;4.474;2022-10-31T11:34:28;16.60;99.90
13898;DHT22;7019;50.766;4.474;2022-10-31T11:37:03;16.80;99.90
13898;DHT22;7019;50.766;4.474;2022-10-31T11:39:31;16.90;99.90
13898;DHT22;7019;50.766;4.474;2022-10-31T11:42:01;16.90;99.90
13898;DHT22;7019;50.766;4.474;2022-10-31T11:44:43;17.10;99.90
13898;DHT22;7019;50.766;4.474;2022-10-31T11:47:14;17.10;99.90
13898;DHT22;7019;50.766;4.474;2022-10-31T11:49:59;17.30;99.90
13898;DHT22;7019;50.766;4.474;2022-10-31T11:52:36;17.50;99.90
13898;DHT22;7019;50.766;4.474;2022-10-31T11:55:15;17.60;99.90
13898;DHT22;7019;50.766;4.474;2022-10-31T11:57:44;17.70;99.90
13898;DHT22;7019;50.766;4.474;2022-10-31T12:00:21;17.60;99.90
13898;DHT22;7019;50.766;4.474;2022-10-31T12:02:48;17.60;99.90
13898;DHT22;7019;50.766;4.474;2022-10-31T12:05:19;17.50;99.90
13898;DHT22;7019;50.766;4.474;2022-10-31T12:07:49;17.60;99.90
13898;DHT22;7019;50.766;4.474;2022-10-31T12:10:21;17.70;99.90
13898;DHT22;7019;50.766;4.474;2022-10-31T12:12:59;17.80;99.90
13898;DHT22;7019;50.766;4.474;2022-10-31T12:15:32;17.80;99.90
13898;DHT22;7019;50.766;4.474;2022-10-31T12:18:20;17.80;99.90
13898;DHT22;7019;50.766;4.474;2022-10-31T12:20:57;17.80;99.90
13898;DHT22;7019;50.766;4.474;2022-10-31T12:23:38;17.80;99.90
13898;DHT22;7019;50.766;4.474;2022-10-31T12:26:14;17.70;99.90
13898;DHT22;7019;50.766;4.474;2022-10-31T12:29:07;17.70;99.90
13898;DHT22;7019;50.766;4.474;2022-10-31T12:31:50;17.60;99.90
13898;DHT22;7019;50.766;4.474;2022-10-31T12:34:42;17.60;99.90
13898;DHT22;7019;50.766;4.474;2022-10-31T12:37:19;17.60;99.90
13898;DHT22;7019;50.766;4.474;2022-10-31T12:39:55;17.50;99.90
13898;DHT22;7019;50.766;4.474;2022-10-31T12:42:35;17.50;99.90
13898;DHT22;7019;50.766;4.474;2022-10-31T12:45:20;17.40;99.90
13898;DHT22;7019;50.766;4.474;2022-10-31T12:48:06;17.30;99.90
13898;DHT22;7019;50.766;4.474;2022-10-31T12:50:48;17.20;99.90
13898;DHT22;7019;50.766;4.474;2022-10-31T12:53:37;17.20;99.90
13898;DHT22;7019;50.766;4.474;2022-10-31T12:56:17;17.20;99.90
13898;DHT22;7019;50.766;4.474;2022-10-31T12:58:49;17.30;99.90
13898;DHT22;7019;50.766;4.474;2022-10-31T13:01:21;17.30;99.90
13898;DHT22;7019;50.766;4.474;2022-10-31T13:03:53;17.50;99.90
13898;DHT22;7019;50.766;4.474;2022-10-31T13:06:24;17.60;99.90
13898;DHT22;7019;50.766;4.474;2022-10-31T13:08:56;17.70;99.90
13898;DHT22;7019;50.766;4.474;2022-10-31T13:11:30;17.80;99.90
13898;DHT22;7019;50.766;4.474;2022-10-31T13:14:05;17.90;99.90
13898;DHT22;7019;50.766;4.474;2022-10-31T13:16:36;18.00;99.90
13898;DHT22;7019;50.766;4.474;2022-10-31T13:19:08;18.00;99.90
13898;DHT22;7019;50.766;4.474;2022-10-31T13:21:41;18.10;99.90
13898;DHT22;7019;50.766;4.474;2022-10-31T13:24:13;18.00;99.90
13898;DHT22;7019;50.766;4.474;2022-10-31T13:26:48;17.90;99.90
13898;DHT22;7019;50.766;4.474;2022-10-31T13:29:20;17.90;99.90
13898;DHT22;7019;50.766;4.474;2022-10-31T13:31:50;17.90;99.90
13898;DHT22;7019;50.766;4.474;2022-10-31T13:34:23;17.90;99.90
13898;DHT22;7019;50.766;4.474;2022-10-31T13:36:59;17.90;99.90
13898;DHT22;7019;50.766;4.474;2022-10-31T13:39:49;17.90;99.90
13898;DHT22;7019;50.766;4.474;2022-10-31T13:42:20;17.90;99.90
13898;DHT22;7019;50.766;4.474;2022-10-31T13:44:50;17.80;99.90
13898;DHT22;7019;50.766;4.474;2022-10-31T13:47:24;17.80;99.90
13898;DHT22;7019;50.766;4.474;2022-10-31T13:49:51;17.80;99.90
13898;DHT22;7019;50.766;4.474;2022-10-31T13:52:29;17.80;99.90
13898;DHT22;7019;50.766;4.474;2022-10-31T13:54:56;17.80;99.90
13898;DHT22;7019;50.766;4.474;2022-10-31T13:57:33;17.80;99.90
13898;DHT22;7019;50.766;4.474;2022-10-31T14:00:04;17.80;99.90
13898;DHT22;7019;50.766;4.474;2022-10-31T14:02:35;17.80;99.90
13898;DHT22;7019;50.766;4.474;2022-10-31T14:05:05;17.70;99.90
13898;DHT22;7019;50.766;4.474;2022-10-31T14:07:33;17.60;99.90
13898;DHT22;7019;50.766;4.474;2022-10-31T14:10:03;17.50;99.90
13898;DHT22;7019;50.766;4.474;2022-10-31T14:12:35;17.50;99.90
13898;DHT22;7019;50.766;4.474;2022-10-31T14:15:12;17.40;99.90
13898;DHT22;7019;50.766;4.474;2022-10-31T14:17:46;17.50;99.90
13898;DHT22;7019;50.766;4.474;2022-10-31T14:23:12;17.40;99.90
13898;DHT22;7019;50.766;4.474;2022-10-31T14:25:40;17.30;99.90
13898;DHT22;7019;50.766;4.474;2022-10-31T14:28:21;17.20;99.90
13898;DHT22;7019;50.766;4.474;2022-10-31T14:30:53;17.10;99.90
13898;DHT22;7019;50.766;4.474;2022-10-31T14:33:22;17.10;99.90
13898;DHT22;7019;50.766;4.474;2022-10-31T14:35:56;17.20;99.90
13898;DHT22;7019;50.766;4.474;2022-10-31T14:38:43;17.20;99.90
13898;DHT22;7019;50.766;4.474;2022-10-31T14:41:36;17.20;99.90
13898;DHT22;7019;50.766;4.474;2022-10-31T14:47:01;17.10;99.90
13898;DHT22;7019;50.766;4.474;2022-10-31T14:49:44;17.10;99.90
13898;DHT22;7019;50.766;4.474;2022-10-31T14:52:17;17.10;99.90
13898;DHT22;7019;50.766;4.474;2022-10-31T14:54:49;17.10;99.90
13898;DHT22;7019;50.766;4.474;2022-10-31T14:57:22;17.10;99.90
13898;DHT22;7019;50.766;4.474;2022-10-31T14:59:56;17.00;99.90
13898;DHT22;7019;50.766;4.474;2022-10-31T15:02:26;16.90;99.90
13898;DHT22;7019;50.766;4.474;2022-10-31T15:04:56;16.80;99.90
13898;DHT22;7019;50.766;4.474;2022-10-31T15:07:26;16.80;99.90
13898;DHT22;7019;50.766;4.474;2022-10-31T15:09:57;16.70;99.90
13898;DHT22;7019;50.766;4.474;2022-10-31T15:12:26;16.60;99.90
13898;DHT22;7019;50.766;4.474;2022-10-31T15:14:55;16.50;99.90
13898;DHT22;7019;50.766;4.474;2022-10-31T15:17:25;16.50;99.90
13898;DHT22;7019;50.766;4.474;2022-10-31T15:19:52;16.40;99.90
13898;DHT22;7019;50.766;4.474;2022-10-31T15:22:23;16.30;99.90
13898;DHT22;7019;50.766;4.474;2022-10-31T15:24:50;16.30;99.90
13898;DHT22;7019;50.766;4.474;2022-10-31T15:27:22;16.30;99.90
13898;DHT22;7019;50.766;4.474;2022-10-31T15:29:51;16.20;99.90
13898;DHT22;7019;50.766;4.474;2022-10-31T15:32:22;16.10;99.90
13898;DHT22;7019;50.766;4.474;2022-10-31T15:34:50;16.00;99.90
13898;DHT22;7019;50.766;4.474;2022-10-31T15:37:19;15.90;99.90
13898;DHT22;7019;50.766;4.474;2022-10-31T15:39:48;15.70;99.90
13898;DHT22;7019;50.766;4.474;2022-10-31T15:42:20;15.50;99.90
13898;DHT22;7019;50.766;4.474;2022-10-31T15:44:51;15.30;99.90
13898;DHT22;7019;50.766;4.474;2022-10-31T15:47:22;15.20;99.90
13898;DHT22;7019;50.766;4.474;2022-10-31T15:49:52;15.10;99.90
13898;DHT22;7019;50.766;4.474;2022-10-31T15:52:27;15.00;99.90
13898;DHT22;7019;50.766;4.474;2022-10-31T15:54:58;15.00;99.90
13898;DHT22;7019;50.766;4.474;2022-10-31T15:57:26;14.80;99.90
13898;DHT22;7019;50.766;4.474;2022-10-31T15:59:54;14.70;99.90
13898;DHT22;7019;50.766;4.474;2022-10-31T16:02:24;14.70;99.90
13898;DHT22;7019;50.766;4.474;2022-10-31T16:04:54;14.70;99.90
13898;DHT22;7019;50.766;4.474;2022-10-31T16:07:22;14.70;99.90
13898;DHT22;7019;50.766;4.474;2022-10-31T16:09:52;14.70;99.90
13898;DHT22;7019;50.766;4.474;2022-10-31T16:12:21;14.70;99.90
13898;DHT22;7019;50.766;4.474;2022-10-31T16:14:50;14.70;99.90
13898;DHT22;7019;50.766;4.474;2022-10-31T16:17:19;14.60;99.90
13898;DHT22;7019;50.766;4.474;2022-10-31T16:19:55;14.50;99.90
13898;DHT22;7019;50.766;4.474;2022-10-31T16:22:26;14.40;99.90
13898;DHT22;7019;50.766;4.474;2022-10-31T16:24:57;14.30;99.90
13898;DHT22;7019;50.766;4.474;2022-10-31T16:27:26;14.20;99.90
13898;DHT22;7019;50.766;4.474;2022-10-31T16:29:55;14.20;99.90
13898;DHT22;7019;50.766;4.474;2022-10-31T16:32:27;14.10;99.90
13898;DHT22;7019;50.766;4.474;2022-10-31T16:35:24;14.00;99.90